createdAt,value
2017-11-17T00:00:24.600Z,99.99
2017-11-17T00:01:24.587Z,99.99
2017-11-17T00:02:24.577Z,99.99
2017-11-17T00:03:24.564Z,99.99
2017-11-17T00:04:24.554Z,99.99
2017-11-17T00:05:24.541Z,99.99
2017-11-17T00:06:24.546Z,99.99
2017-11-17T00:07:24.520Z,99.99
2017-11-17T00:08:24.516Z,99.99
2017-11-17T00:09:24.499Z,99.99
2017-11-17T00:10:24.486Z,99.99
2017-11-17T00:11:24.478Z,99.99
2017-11-17T00:12:24.477Z,99.99
2017-11-17T00:13:24.456Z,99.99
2017-11-17T00:14:24.445Z,99.99
2017-11-17T00:15:24.441Z,99.99
2017-11-17T00:16:24.421Z,99.99
2017-11-17T00:17:24.428Z,99.99
2017-11-17T00:18:24.427Z,99.99
2017-11-17T00:19:24.391Z,99.99
2017-11-17T00:20:24.382Z,99.99
2017-11-17T00:21:24.371Z,99.99
2017-11-17T00:22:24.357Z,99.99
2017-11-17T00:23:24.363Z,99.99
2017-11-17T00:24:24.335Z,99.99
2017-11-17T00:25:24.328Z,99.99
2017-11-17T00:26:24.314Z,99.99
2017-11-17T00:27:24.304Z,99.99
2017-11-17T00:28:24.292Z,99.99
2017-11-17T00:29:24.296Z,99.99
2017-11-17T00:30:24.271Z,99.99
2017-11-17T00:31:24.262Z,99.99
2017-11-17T00:32:24.252Z,99.99
2017-11-17T00:33:24.240Z,99.99
2017-11-17T00:34:24.245Z,99.99
2017-11-17T00:35:24.228Z,99.99
2017-11-17T00:36:24.214Z,99.99
2017-11-17T00:37:24.197Z,99.99
2017-11-17T00:38:24.182Z,99.99
2017-11-17T00:39:24.174Z,99.99
2017-11-17T00:40:24.164Z,99.99
2017-11-17T00:41:24.155Z,99.99
2017-11-17T00:42:24.143Z,99.99
2017-11-17T00:43:24.130Z,99.99
2017-11-17T00:44:24.118Z,99.99
2017-11-17T00:45:24.107Z,99.99
2017-11-17T00:46:24.100Z,99.99
2017-11-17T00:47:24.087Z,99.99
2017-11-17T00:48:24.076Z,99.99
2017-11-17T00:49:24.067Z,99.99
2017-11-17T00:50:24.055Z,99.99
2017-11-17T00:51:24.044Z,99.99
2017-11-17T00:52:24.040Z,99.99
2017-11-17T00:53:24.030Z,99.99
2017-11-17T00:54:24.015Z,99.99
2017-11-17T00:55:24.003Z,99.99
2017-11-17T00:56:23.989Z,99.99
2017-11-17T00:57:23.985Z,99.99
2017-11-17T00:58:23.969Z,99.99
2017-11-17T00:59:23.959Z,99.99
2017-11-17T01:00:23.951Z,99.99
2017-11-17T01:01:23.935Z,99.99
2017-11-17T01:02:23.924Z,99.99
2017-11-17T01:03:23.915Z,99.99
2017-11-17T01:04:23.910Z,99.99
2017-11-17T01:05:23.891Z,99.99
2017-11-17T01:06:23.887Z,99.99
2017-11-17T01:07:23.872Z,99.99
2017-11-17T01:08:23.861Z,99.99
2017-11-17T01:09:23.853Z,99.99
2017-11-17T01:10:23.840Z,99.99
2017-11-17T01:11:23.827Z,99.99
2017-11-17T01:12:23.820Z,99.99
2017-11-17T01:13:23.810Z,99.99
2017-11-17T01:14:23.794Z,99.99
2017-11-17T01:15:23.783Z,99.99
2017-11-17T01:16:23.782Z,99.99
2017-11-17T01:17:23.766Z,99.99
2017-11-17T01:18:23.750Z,99.99
2017-11-17T01:19:23.738Z,99.99
2017-11-17T01:20:23.740Z,99.99
2017-11-17T01:21:23.717Z,99.99
2017-11-17T01:22:23.712Z,99.99
2017-11-17T01:23:23.698Z,99.99
2017-11-17T01:24:23.687Z,99.99
2017-11-17T01:25:23.675Z,99.99
2017-11-17T01:26:23.673Z,99.99
2017-11-17T01:27:23.653Z,99.99
2017-11-17T01:28:23.649Z,99.99
2017-11-17T01:29:23.638Z,99.99
2017-11-17T01:30:23.686Z,99.99
2017-11-17T01:31:23.609Z,99.99
2017-11-17T01:32:23.605Z,99.99
2017-11-17T01:33:23.591Z,99.99
2017-11-17T01:34:23.582Z,99.99
2017-11-17T01:35:23.573Z,99.99
2017-11-17T01:36:23.575Z,99.99
2017-11-17T01:37:23.550Z,99.99
2017-11-17T01:38:23.539Z,99.99
2017-11-17T01:39:23.533Z,99.99
2017-11-17T01:40:23.513Z,99.99
2017-11-17T01:41:23.502Z,99.99
2017-11-17T01:42:23.493Z,99.99
2017-11-17T01:43:23.486Z,99.99
2017-11-17T01:44:23.470Z,99.99
2017-11-17T01:45:23.467Z,99.99
2017-11-17T01:46:23.461Z,99.99
2017-11-17T01:47:23.439Z,99.99
2017-11-17T01:48:23.438Z,99.99
2017-11-17T01:49:23.417Z,99.99
2017-11-17T01:50:23.407Z,99.99
2017-11-17T01:51:23.395Z,99.99
2017-11-17T01:52:23.385Z,99.99
2017-11-17T01:53:23.375Z,99.99
2017-11-17T01:54:23.391Z,99.99
2017-11-17T01:55:23.352Z,99.99
2017-11-17T01:56:23.341Z,99.99
2017-11-17T01:57:23.332Z,99.99
2017-11-17T01:58:23.342Z,99.99
2017-11-17T01:59:23.315Z,99.99
2017-11-17T02:00:23.322Z,99.99
2017-11-17T02:01:23.290Z,99.99
2017-11-17T02:02:23.288Z,99.99
2017-11-17T02:03:23.284Z,99.99
2017-11-17T02:04:23.275Z,99.99
2017-11-17T02:05:23.249Z,99.99
2017-11-17T02:06:23.235Z,99.99
2017-11-17T02:07:23.225Z,99.99
2017-11-17T02:08:23.215Z,99.99
2017-11-17T02:09:23.212Z,99.99
2017-11-17T02:10:23.198Z,99.99
2017-11-17T02:11:23.188Z,99.99
2017-11-17T02:12:23.169Z,99.99
2017-11-17T02:13:23.162Z,99.99
2017-11-17T02:14:23.156Z,99.99
2017-11-17T02:15:23.147Z,99.99
2017-11-17T02:16:23.128Z,99.99
2017-11-17T02:17:23.125Z,99.99
2017-11-17T02:18:23.105Z,99.99
2017-11-17T02:19:23.099Z,99.99
2017-11-17T02:20:23.088Z,99.99
2017-11-17T02:21:23.090Z,99.99
2017-11-17T02:22:23.067Z,99.99
2017-11-17T02:23:23.067Z,99.99
2017-11-17T02:24:23.039Z,99.99
2017-11-17T02:25:23.034Z,99.99
2017-11-17T02:26:23.019Z,99.99
2017-11-17T02:27:23.008Z,99.99
2017-11-17T02:28:23.022Z,99.99
2017-11-17T02:29:22.986Z,99.99
2017-11-17T02:30:22.975Z,99.99
2017-11-17T02:31:22.965Z,99.99
2017-11-17T02:32:22.953Z,99.99
2017-11-17T02:33:22.943Z,99.99
2017-11-17T02:34:22.932Z,99.99
2017-11-17T02:35:22.923Z,99.99
2017-11-17T02:36:22.914Z,99.99
2017-11-17T02:37:22.898Z,99.99
2017-11-17T02:38:22.889Z,99.99
2017-11-17T02:39:22.879Z,99.99
2017-11-17T02:40:22.874Z,99.99
2017-11-17T02:41:22.857Z,99.99
2017-11-17T02:42:22.846Z,99.99
2017-11-17T02:43:22.834Z,99.99
2017-11-17T02:44:22.826Z,99.99
2017-11-17T02:45:22.816Z,99.99
2017-11-17T02:46:22.811Z,99.99
2017-11-17T02:47:22.798Z,99.99
2017-11-17T02:48:22.782Z,99.99
2017-11-17T02:49:22.769Z,99.99
2017-11-17T02:50:22.763Z,99.99
2017-11-17T02:51:22.749Z,99.99
2017-11-17T02:52:22.738Z,99.99
2017-11-17T02:53:22.724Z,99.99
2017-11-17T02:54:22.717Z,99.99
2017-11-17T02:55:22.709Z,99.99
2017-11-17T02:56:22.705Z,99.99
2017-11-17T02:57:22.682Z,99.99
2017-11-17T02:58:22.673Z,99.99
2017-11-17T02:59:22.665Z,99.99
2017-11-17T03:00:43.661Z,99.99
2017-11-17T03:01:22.637Z,99.99
2017-11-17T03:02:22.625Z,99.99
2017-11-17T03:03:22.615Z,99.99
2017-11-17T03:04:22.611Z,99.99
2017-11-17T03:05:22.593Z,99.99
2017-11-17T03:06:22.581Z,99.99
2017-11-17T03:07:22.577Z,99.99
2017-11-17T03:08:22.560Z,99.99
2017-11-17T03:09:22.610Z,99.99
2017-11-17T03:10:22.539Z,99.99
2017-11-17T03:11:22.541Z,99.99
2017-11-17T03:12:22.544Z,99.99
2017-11-17T03:13:22.516Z,99.99
2017-11-17T03:14:22.496Z,99.99
2017-11-17T03:15:22.483Z,99.99
2017-11-17T03:16:22.480Z,99.99
2017-11-17T03:17:22.464Z,99.99
2017-11-17T03:18:22.452Z,99.99
2017-11-17T03:19:22.445Z,99.99
2017-11-17T03:20:22.428Z,99.99
2017-11-17T03:21:22.419Z,99.99
2017-11-17T03:22:22.425Z,99.99
2017-11-17T03:23:22.398Z,99.99
2017-11-17T03:24:22.387Z,99.99
2017-11-17T03:25:22.378Z,99.99
2017-11-17T03:26:22.372Z,99.99
2017-11-17T03:27:22.351Z,99.99
2017-11-17T03:28:22.339Z,99.99
2017-11-17T03:29:22.331Z,99.99
2017-11-17T03:30:22.324Z,99.99
2017-11-17T03:31:22.324Z,99.99
2017-11-17T03:32:22.294Z,99.99
2017-11-17T03:33:22.288Z,99.99
2017-11-17T03:34:22.288Z,99.99
2017-11-17T03:35:22.260Z,99.99
2017-11-17T03:36:22.262Z,99.99
2017-11-17T03:37:22.238Z,99.99
2017-11-17T03:38:22.231Z,99.99
2017-11-17T03:39:22.231Z,99.99
2017-11-17T03:40:22.207Z,99.99
2017-11-17T03:41:22.197Z,99.99
2017-11-17T03:42:22.188Z,99.99
2017-11-17T03:43:22.171Z,99.99
2017-11-17T03:44:22.165Z,99.99
2017-11-17T03:45:22.154Z,99.99
2017-11-17T03:46:22.148Z,99.99
2017-11-17T03:47:22.129Z,99.99
2017-11-17T03:48:22.123Z,99.99
2017-11-17T03:49:22.106Z,99.99
2017-11-17T03:50:22.096Z,99.99
2017-11-17T03:51:22.084Z,99.99
2017-11-17T03:52:22.069Z,99.99
2017-11-17T03:53:22.064Z,99.99
2017-11-17T03:54:22.045Z,99.99
2017-11-17T03:55:22.036Z,99.99
2017-11-17T03:56:22.022Z,99.99
2017-11-17T03:57:22.017Z,99.99
2017-11-17T03:58:21.999Z,99.99
2017-11-17T03:59:21.989Z,99.99
2017-11-17T04:00:21.976Z,99.99
2017-11-17T04:01:21.968Z,99.99
2017-11-17T04:02:21.968Z,99.99
2017-11-17T04:03:21.941Z,99.99
2017-11-17T04:04:21.933Z,99.99
2017-11-17T04:05:21.933Z,99.99
2017-11-17T04:06:21.913Z,99.99
2017-11-17T04:07:21.911Z,99.99
2017-11-17T04:08:21.891Z,99.99
2017-11-17T04:09:21.878Z,99.99
2017-11-17T04:10:21.865Z,99.99
2017-11-17T04:11:21.851Z,99.99
2017-11-17T04:12:21.835Z,99.99
2017-11-17T04:13:21.825Z,99.99
2017-11-17T04:14:21.849Z,99.99
2017-11-17T04:15:21.802Z,99.99
2017-11-17T04:16:21.798Z,99.99
2017-11-17T04:17:21.778Z,99.99
2017-11-17T04:18:21.784Z,99.99
2017-11-17T04:19:21.758Z,99.99
2017-11-17T04:20:21.743Z,99.99
2017-11-17T04:21:21.730Z,99.99
2017-11-17T04:22:21.721Z,99.99
2017-11-17T04:23:21.710Z,99.99
2017-11-17T04:24:21.703Z,99.99
2017-11-17T04:25:21.683Z,99.99
2017-11-17T04:26:21.673Z,99.99
2017-11-17T04:27:21.704Z,99.99
2017-11-17T04:28:21.648Z,99.99
2017-11-17T04:29:21.661Z,99.99
2017-11-17T04:30:21.626Z,99.99
2017-11-17T04:31:21.617Z,99.99
2017-11-17T04:32:21.604Z,99.99
2017-11-17T04:33:21.589Z,99.99
2017-11-17T04:34:21.580Z,99.99
2017-11-17T04:35:21.595Z,99.99
2017-11-17T04:36:21.575Z,99.99
2017-11-17T04:37:21.541Z,99.99
2017-11-17T04:38:21.532Z,99.99
2017-11-17T04:39:21.520Z,99.99
2017-11-17T04:40:21.508Z,99.99
2017-11-17T04:41:21.493Z,99.99
2017-11-17T04:42:21.483Z,99.99
2017-11-17T04:43:21.470Z,99.99
2017-11-17T04:44:21.457Z,99.99
2017-11-17T04:45:21.453Z,99.99
2017-11-17T04:46:21.433Z,99.99
2017-11-17T04:47:21.429Z,99.99
2017-11-17T04:48:21.416Z,99.99
2017-11-17T04:49:21.400Z,99.99
2017-11-17T04:50:21.386Z,99.99
2017-11-17T04:51:21.374Z,99.99
2017-11-17T04:52:21.363Z,99.99
2017-11-17T04:53:21.352Z,99.99
2017-11-17T04:54:21.340Z,99.99
2017-11-17T04:55:21.344Z,99.99
2017-11-17T04:56:21.318Z,99.99
2017-11-17T04:57:21.304Z,99.99
2017-11-17T04:58:21.295Z,99.99
2017-11-17T04:59:21.278Z,99.99
2017-11-17T05:00:21.268Z,99.99
2017-11-17T05:01:21.264Z,99.99
2017-11-17T05:02:21.241Z,99.99
2017-11-17T05:03:21.230Z,99.99
2017-11-17T05:04:21.228Z,99.99
2017-11-17T05:05:21.205Z,99.99
2017-11-17T05:06:21.192Z,99.99
2017-11-17T05:07:21.184Z,99.99
2017-11-17T05:08:21.177Z,99.99
2017-11-17T05:09:21.155Z,99.99
2017-11-17T05:10:21.147Z,99.99
2017-11-17T05:11:21.153Z,99.99
2017-11-17T05:12:21.132Z,99.99
2017-11-17T05:13:21.110Z,99.99
2017-11-17T05:14:21.097Z,99.99
2017-11-17T05:15:21.083Z,99.99
2017-11-17T05:16:21.078Z,99.99
2017-11-17T05:17:21.081Z,99.99
2017-11-17T05:18:21.047Z,99.99
2017-11-17T05:19:21.035Z,99.99
2017-11-17T05:20:21.026Z,99.99
2017-11-17T05:21:21.014Z,99.99
2017-11-17T05:22:21.012Z,99.99
2017-11-17T05:23:20.987Z,99.99
2017-11-17T05:24:20.980Z,99.99
2017-11-17T05:25:20.961Z,99.99
2017-11-17T05:26:20.952Z,99.99
2017-11-17T05:27:20.948Z,99.99
2017-11-17T05:28:20.924Z,99.99
2017-11-17T05:29:20.924Z,99.99
2017-11-17T05:30:20.928Z,99.99
2017-11-17T05:31:20.898Z,99.99
2017-11-17T05:32:20.887Z,99.99
2017-11-17T05:33:20.882Z,99.99
2017-11-17T05:34:20.856Z,99.99
2017-11-17T05:35:20.839Z,99.99
2017-11-17T05:36:20.827Z,99.99
2017-11-17T05:37:20.817Z,99.99
2017-11-17T05:38:20.809Z,99.99
2017-11-17T05:39:20.790Z,99.99
2017-11-17T05:40:20.776Z,99.99
2017-11-17T05:41:20.765Z,99.99
2017-11-17T05:42:20.760Z,99.99
2017-11-17T05:43:20.753Z,99.99
2017-11-17T05:44:20.727Z,99.99
2017-11-17T05:45:20.714Z,99.99
2017-11-17T05:46:20.702Z,99.99
2017-11-17T05:47:20.689Z,99.99
2017-11-17T05:48:20.695Z,99.99
2017-11-17T05:49:20.671Z,99.99
2017-11-17T05:50:20.660Z,99.99
2017-11-17T05:51:20.655Z,99.99
2017-11-17T05:52:20.698Z,99.99
2017-11-17T05:53:20.630Z,99.99
2017-11-17T05:54:20.618Z,99.99
2017-11-17T05:55:20.593Z,99.99
2017-11-17T05:56:20.582Z,99.99
2017-11-17T05:57:20.568Z,99.99
2017-11-17T05:58:20.556Z,99.99
2017-11-17T05:59:20.548Z,99.99
2017-11-17T06:00:20.534Z,99.99
2017-11-17T06:01:20.516Z,99.99
2017-11-17T06:02:20.506Z,99.99
2017-11-17T06:03:20.533Z,99.99
2017-11-17T06:04:20.480Z,99.99
2017-11-17T06:05:20.490Z,99.99
2017-11-17T06:06:20.458Z,99.99
2017-11-17T06:07:20.444Z,99.99
2017-11-17T06:08:20.432Z,99.99
2017-11-17T06:09:20.417Z,99.99
2017-11-17T06:10:20.419Z,99.99
2017-11-17T06:11:20.399Z,99.99
2017-11-17T06:12:20.377Z,99.99
2017-11-17T06:13:20.366Z,99.99
2017-11-17T06:14:20.354Z,99.99
2017-11-17T06:15:20.355Z,99.99
2017-11-17T06:16:20.328Z,99.99
2017-11-17T06:17:20.315Z,99.99
2017-11-17T06:18:20.327Z,99.99
2017-11-17T06:19:20.294Z,99.99
2017-11-17T06:20:20.280Z,99.99
2017-11-17T06:21:20.269Z,99.99
2017-11-17T06:22:20.252Z,99.99
2017-11-17T06:23:20.249Z,99.99
2017-11-17T06:24:20.226Z,99.99
2017-11-17T06:25:20.215Z,99.99
2017-11-17T06:26:20.233Z,99.99
2017-11-17T06:27:20.190Z,99.99
2017-11-17T06:28:20.176Z,99.99
2017-11-17T06:29:20.162Z,99.99
2017-11-17T06:30:20.156Z,99.99
2017-11-17T06:31:20.142Z,99.99
2017-11-17T06:32:20.124Z,99.99
2017-11-17T06:33:20.113Z,99.99
2017-11-17T06:34:20.104Z,99.99
2017-11-17T06:35:20.089Z,99.99
2017-11-17T06:36:20.074Z,99.99
2017-11-17T06:37:20.076Z,99.99
2017-11-17T06:38:20.056Z,99.99
2017-11-17T06:39:20.046Z,99.99
2017-11-17T06:40:20.026Z,99.99
2017-11-17T06:41:20.010Z,99.99
2017-11-17T06:42:20.008Z,99.99
2017-11-17T06:43:19.989Z,99.99
2017-11-17T06:44:19.972Z,99.99
2017-11-17T06:45:19.960Z,99.99
2017-11-17T06:46:19.952Z,99.99
2017-11-17T06:47:19.936Z,99.99
2017-11-17T06:48:19.925Z,99.99
2017-11-17T06:49:19.910Z,99.99
2017-11-17T06:50:19.897Z,99.99
2017-11-17T06:51:19.886Z,99.99
2017-11-17T06:52:19.869Z,99.99
2017-11-17T06:53:19.868Z,99.99
2017-11-17T06:54:20.391Z,99.99
2017-11-17T06:55:19.837Z,99.99
2017-11-17T06:56:19.819Z,99.99
2017-11-17T06:57:19.808Z,99.99
2017-11-17T06:58:19.804Z,99.99
2017-11-17T06:59:19.784Z,99.99
2017-11-17T07:00:19.775Z,99.99
2017-11-17T07:01:19.755Z,99.99
2017-11-17T07:02:19.744Z,99.99
2017-11-17T07:03:19.731Z,99.99
2017-11-17T07:04:19.718Z,99.99
2017-11-17T07:05:19.709Z,99.99
2017-11-17T07:06:19.691Z,99.99
2017-11-17T07:07:19.680Z,99.99
2017-11-17T07:08:19.666Z,99.99
2017-11-17T07:09:19.657Z,99.99
2017-11-17T07:10:19.641Z,99.99
2017-11-17T07:11:19.630Z,99.99
2017-11-17T07:12:19.615Z,99.99
2017-11-17T07:13:19.602Z,99.99
2017-11-17T07:14:19.595Z,99.99
2017-11-17T07:15:19.586Z,99.99
2017-11-17T07:16:19.562Z,99.99
2017-11-17T07:17:19.550Z,99.99
2017-11-17T07:18:19.538Z,99.99
2017-11-17T07:19:19.529Z,99.99
2017-11-17T07:20:19.512Z,99.99
2017-11-17T07:21:19.511Z,99.99
2017-11-17T07:22:19.492Z,99.99
2017-11-17T07:23:19.474Z,99.99
2017-11-17T07:24:19.479Z,99.99
2017-11-17T07:25:19.467Z,99.99
2017-11-17T07:26:19.456Z,99.99
2017-11-17T07:27:19.436Z,99.99
2017-11-17T07:28:19.410Z,99.99
2017-11-17T07:29:19.438Z,99.99
2017-11-17T07:30:19.407Z,99.99
2017-11-17T07:31:19.378Z,99.99
2017-11-17T07:32:19.367Z,99.99
2017-11-17T07:33:19.346Z,99.99
2017-11-17T07:34:19.472Z,99.99
2017-11-17T07:35:19.340Z,99.99
2017-11-17T07:36:19.337Z,99.99
2017-11-17T07:37:19.299Z,99.99
2017-11-17T07:38:19.284Z,99.99
2017-11-17T07:39:19.273Z,99.99
2017-11-17T07:40:19.297Z,99.99
2017-11-17T07:41:19.479Z,99.99
2017-11-17T07:42:19.291Z,99.99
2017-11-17T07:43:19.234Z,99.99
2017-11-17T07:44:19.239Z,99.99
2017-11-17T07:45:19.210Z,99.99
2017-11-17T07:46:19.187Z,99.99
2017-11-17T07:47:19.169Z,99.99
2017-11-17T07:48:19.154Z,99.99
2017-11-17T07:49:19.148Z,99.99
2017-11-17T07:50:19.137Z,99.99
2017-11-17T07:51:19.136Z,99.99
2017-11-17T07:52:19.110Z,99.99
2017-11-17T07:53:19.093Z,99.99
2017-11-17T07:54:19.092Z,99.99
2017-11-17T07:55:19.069Z,99.99
2017-11-17T07:56:19.068Z,99.99
2017-11-17T07:57:19.047Z,99.99
2017-11-17T07:58:19.039Z,99.99
2017-11-17T07:59:19.017Z,99.99
2017-11-17T08:00:19.005Z,99.99
2017-11-17T08:01:18.997Z,99.99
2017-11-17T08:02:18.981Z,99.99
2017-11-17T08:03:18.969Z,99.99
2017-11-17T08:04:18.958Z,99.99
2017-11-17T08:05:18.946Z,99.99
2017-11-17T08:06:18.934Z,99.99
2017-11-17T08:07:18.929Z,99.99
2017-11-17T08:08:18.906Z,99.99
2017-11-17T08:09:18.893Z,99.99
2017-11-17T08:10:18.880Z,99.99
2017-11-17T08:11:18.868Z,99.99
2017-11-17T08:12:18.855Z,99.99
2017-11-17T08:13:18.840Z,99.99
2017-11-17T08:14:18.829Z,99.99
2017-11-17T08:15:18.814Z,99.99
2017-11-17T08:16:18.802Z,99.99
2017-11-17T08:17:18.790Z,99.99
2017-11-17T08:18:18.776Z,99.99
2017-11-17T08:19:18.764Z,99.99
2017-11-17T08:20:18.752Z,99.99
2017-11-17T08:21:18.761Z,99.99
2017-11-17T08:22:18.726Z,99.99
2017-11-17T08:23:18.719Z,99.99
2017-11-17T08:24:19.389Z,99.99
2017-11-17T08:25:18.692Z,99.99
2017-11-17T08:26:18.679Z,99.99
2017-11-17T08:27:18.669Z,99.99
2017-11-17T08:28:18.654Z,99.99
2017-11-17T08:29:18.641Z,99.99
2017-11-17T08:30:18.634Z,99.99
2017-11-17T08:31:18.619Z,99.99
2017-11-17T08:32:18.613Z,99.99
2017-11-17T08:33:18.595Z,99.99
2017-11-17T08:34:18.587Z,99.99
2017-11-17T08:35:18.570Z,99.99
2017-11-17T08:36:18.562Z,99.99
2017-11-17T08:37:18.551Z,99.99
2017-11-17T08:38:18.538Z,99.99
2017-11-17T08:39:18.529Z,99.99
2017-11-17T08:40:18.516Z,99.99
2017-11-17T08:41:18.506Z,99.99
2017-11-17T08:42:18.497Z,99.99
2017-11-17T08:43:18.492Z,99.99
2017-11-17T08:44:18.479Z,99.99
2017-11-17T08:45:18.471Z,99.99
2017-11-17T08:46:18.456Z,99.99
2017-11-17T08:47:18.446Z,99.99
2017-11-17T08:48:18.448Z,99.99
2017-11-17T08:49:18.428Z,99.99
2017-11-17T08:50:18.417Z,99.99
2017-11-17T08:51:18.410Z,99.99
2017-11-17T08:52:18.405Z,99.99
2017-11-17T08:53:18.396Z,99.99
2017-11-17T08:54:18.386Z,99.99
2017-11-17T08:55:18.397Z,99.99
2017-11-17T08:56:18.406Z,99.99
2017-11-17T08:57:18.359Z,99.99
2017-11-17T08:58:18.357Z,99.99
2017-11-17T08:59:18.353Z,99.99
2017-11-17T09:00:18.338Z,99.99
2017-11-17T09:01:18.328Z,99.99
2017-11-17T09:02:18.332Z,99.99
2017-11-17T09:03:18.318Z,99.99
2017-11-17T09:04:18.309Z,99.99
2017-11-17T09:05:18.304Z,99.99
2017-11-17T09:06:18.298Z,99.99
2017-11-17T09:07:18.294Z,99.99
2017-11-17T09:08:18.288Z,99.99
2017-11-17T09:09:18.276Z,99.99
2017-11-17T09:10:18.283Z,99.99
2017-11-17T09:11:18.265Z,99.99
2017-11-17T09:12:18.259Z,99.99
2017-11-17T09:13:18.261Z,99.99
2017-11-17T09:14:18.248Z,99.99
2017-11-17T09:15:18.249Z,99.99
2017-11-17T09:16:18.237Z,99.99
2017-11-17T09:17:18.233Z,99.99
2017-11-17T09:18:18.232Z,99.99
2017-11-17T09:19:18.218Z,99.99
2017-11-17T09:20:18.214Z,98.79
2017-11-17T09:21:18.208Z,99.99
2017-11-17T09:22:18.206Z,99.99
2017-11-17T09:23:18.206Z,99.08
2017-11-17T09:24:18.195Z,99.99
2017-11-17T09:25:18.191Z,99.99
2017-11-17T09:26:18.189Z,99.99
2017-11-17T09:27:18.186Z,99.99
2017-11-17T09:28:18.176Z,99.99
2017-11-17T09:29:18.193Z,99.99
2017-11-17T09:30:18.171Z,97.03
2017-11-17T09:31:18.171Z,99.89
2017-11-17T09:32:18.163Z,99.99
2017-11-17T09:33:18.158Z,99.99
2017-11-17T09:34:18.157Z,99.99
2017-11-17T09:35:18.150Z,99.99
2017-11-17T09:36:18.145Z,98.79
2017-11-17T09:37:18.149Z,97.08
2017-11-17T09:38:18.138Z,99.55
2017-11-17T09:39:18.137Z,99.65
2017-11-17T09:40:18.132Z,99.99
2017-11-17T09:41:18.132Z,99.99
2017-11-17T09:42:18.140Z,99.99
2017-11-17T09:43:18.126Z,99.18
2017-11-17T09:44:18.123Z,99.99
2017-11-17T09:45:18.143Z,97.13
2017-11-17T09:46:18.116Z,98.08
2017-11-17T09:47:18.121Z,97.32
2017-11-17T09:48:18.113Z,99.99
2017-11-17T09:49:18.108Z,99.99
2017-11-17T09:50:18.106Z,99.99
2017-11-17T09:51:18.105Z,99.99
2017-11-17T09:52:18.103Z,97.94
2017-11-17T09:53:18.106Z,95.08
2017-11-17T09:54:18.111Z,95.37
2017-11-17T09:55:18.094Z,96.51
2017-11-17T09:56:18.094Z,96.13
2017-11-17T09:57:18.090Z,94.60
2017-11-17T09:58:18.088Z,88.40
2017-11-17T09:59:18.098Z,93.74
2017-11-17T10:00:18.085Z,97.22
2017-11-17T10:01:18.080Z,97.22
2017-11-17T10:02:18.084Z,96.17
2017-11-17T10:03:18.079Z,93.31
2017-11-17T10:04:18.079Z,90.17
2017-11-17T10:05:18.082Z,94.46
2017-11-17T10:06:18.088Z,91.60
2017-11-17T10:07:18.072Z,89.59
2017-11-17T10:08:18.069Z,90.83
2017-11-17T10:09:18.068Z,94.93
2017-11-17T10:10:18.073Z,90.93
2017-11-17T10:11:18.075Z,93.51
2017-11-17T10:12:18.068Z,94.36
2017-11-17T10:13:18.072Z,93.88
2017-11-17T10:14:18.063Z,96.46
2017-11-17T10:15:18.065Z,97.27
2017-11-17T10:16:18.063Z,95.17
2017-11-17T10:17:18.072Z,93.36
2017-11-17T10:18:18.068Z,89.35
2017-11-17T10:19:18.073Z,89.16
2017-11-17T10:20:18.061Z,93.36
2017-11-17T10:21:18.056Z,90.59
2017-11-17T10:22:18.056Z,92.12
2017-11-17T10:23:18.056Z,88.97
2017-11-17T10:24:18.056Z,85.53
2017-11-17T10:25:18.061Z,88.78
2017-11-17T10:26:18.068Z,89.06
2017-11-17T10:27:18.062Z,86.68
2017-11-17T10:28:18.062Z,91.07
2017-11-17T10:29:18.055Z,84.86
2017-11-17T10:30:18.055Z,89.64
2017-11-17T10:31:18.064Z,89.16
2017-11-17T10:32:18.062Z,88.20
2017-11-17T10:33:18.060Z,86.20
2017-11-17T10:34:18.057Z,89.06
2017-11-17T10:35:18.055Z,89.83
2017-11-17T10:36:18.058Z,86.20
2017-11-17T10:37:18.054Z,89.64
2017-11-17T10:38:18.053Z,87.96
2017-11-17T10:39:18.053Z,87.48
2017-11-17T10:40:18.059Z,86.91
2017-11-17T10:41:18.053Z,89.68
2017-11-17T10:42:18.055Z,86.82
2017-11-17T10:43:18.067Z,91.02
2017-11-17T10:44:18.054Z,89.59
2017-11-17T10:45:18.055Z,89.78
2017-11-17T10:46:18.055Z,84.91
2017-11-17T10:47:18.055Z,78.41
2017-11-17T10:48:18.054Z,77.17
2017-11-17T10:49:18.057Z,83.95
2017-11-17T10:50:18.056Z,85.58
2017-11-17T10:51:18.069Z,85.86
2017-11-17T10:52:18.058Z,79.08
2017-11-17T10:53:18.059Z,82.81
2017-11-17T10:54:18.060Z,84.91
2017-11-17T10:55:18.062Z,81.66
2017-11-17T10:56:18.066Z,83.09
2017-11-17T10:57:18.065Z,84.66
2017-11-17T10:58:18.062Z,87.62
2017-11-17T10:59:18.066Z,87.82
2017-11-17T11:00:18.065Z,87.15
2017-11-17T11:01:18.095Z,87.34
2017-11-17T11:02:18.070Z,83.23
2017-11-17T11:03:18.067Z,86.76
2017-11-17T11:04:18.065Z,88.20
2017-11-17T11:05:18.066Z,81.51
2017-11-17T11:06:18.069Z,84.95
2017-11-17T11:07:18.076Z,83.70
2017-11-17T11:08:18.078Z,79.69
2017-11-17T11:09:18.071Z,83.90
2017-11-17T11:10:18.075Z,77.97
2017-11-17T11:11:18.073Z,78.64
2017-11-17T11:12:18.074Z,80.07
2017-11-17T11:13:18.077Z,80.55
2017-11-17T11:14:18.078Z,77.21
2017-11-17T11:15:18.082Z,76.25
2017-11-17T11:16:18.081Z,80.84
2017-11-17T11:17:18.082Z,77.63
2017-11-17T11:18:18.082Z,79.44
2017-11-17T11:19:18.082Z,75.91
2017-11-17T11:20:18.085Z,72.94
2017-11-17T11:21:18.086Z,77.53
2017-11-17T11:22:18.087Z,76.48
2017-11-17T11:23:18.092Z,75.71
2017-11-17T11:24:18.090Z,79.25
2017-11-17T11:25:18.092Z,79.64
2017-11-17T11:26:18.099Z,78.78
2017-11-17T11:27:18.102Z,76.48
2017-11-17T11:28:18.095Z,75.91
2017-11-17T11:29:18.096Z,76.86
2017-11-17T11:30:18.097Z,75.52
2017-11-17T11:31:18.100Z,73.80
2017-11-17T11:32:18.098Z,76.67
2017-11-17T11:33:18.104Z,79.64
2017-11-17T11:34:18.104Z,79.35
2017-11-17T11:35:18.105Z,76.29
2017-11-17T11:36:18.102Z,76.29
2017-11-17T11:37:18.106Z,72.56
2017-11-17T11:38:18.105Z,74.66
2017-11-17T11:39:18.109Z,74.48
2017-11-17T11:40:18.110Z,70.52
2017-11-17T11:41:18.114Z,73.99
2017-11-17T11:42:18.114Z,76.16
2017-11-17T11:43:18.111Z,73.96
2017-11-17T11:44:18.130Z,70.71
2017-11-17T11:45:18.133Z,74.24
2017-11-17T11:46:18.121Z,76.16
2017-11-17T11:47:18.118Z,75.34
2017-11-17T11:48:18.117Z,78.49
2017-11-17T11:49:18.120Z,77.92
2017-11-17T11:50:18.120Z,71.32
2017-11-17T11:51:18.120Z,68.55
2017-11-17T11:52:18.120Z,68.51
2017-11-17T11:53:18.121Z,71.57
2017-11-17T11:54:18.121Z,67.65
2017-11-17T11:55:18.125Z,71.76
2017-11-17T11:56:18.124Z,70.04
2017-11-17T11:57:18.125Z,72.72
2017-11-17T11:58:18.129Z,72.62
2017-11-17T11:59:18.129Z,76.45
2017-11-17T12:00:18.128Z,70.52
2017-11-17T12:01:18.129Z,70.33
2017-11-17T12:02:18.129Z,71.67
2017-11-17T12:03:18.131Z,71.38
2017-11-17T12:04:18.132Z,68.61
2017-11-17T12:05:18.134Z,72.33
2017-11-17T12:06:18.135Z,73.10
2017-11-17T12:07:18.131Z,75.87
2017-11-17T12:08:18.133Z,70.33
2017-11-17T12:09:18.131Z,70.52
2017-11-17T12:10:18.131Z,71.19
2017-11-17T12:11:18.131Z,69.76
2017-11-17T12:12:18.132Z,81.70
2017-11-17T12:13:18.133Z,77.50
2017-11-17T12:14:18.131Z,75.30
2017-11-17T12:15:18.158Z,71.38
2017-11-17T12:16:18.140Z,75.49
2017-11-17T12:17:18.144Z,74.73
2017-11-17T12:18:18.135Z,75.78
2017-11-17T12:19:18.132Z,72.53
2017-11-17T12:20:18.130Z,67.75
2017-11-17T12:21:18.127Z,69.95
2017-11-17T12:22:18.129Z,69.27
2017-11-17T12:23:18.127Z,67.36
2017-11-17T12:24:18.127Z,69.76
2017-11-17T12:25:18.124Z,72.72
2017-11-17T12:26:18.129Z,69.56
2017-11-17T12:27:18.125Z,66.79
2017-11-17T12:28:18.124Z,66.89
2017-11-17T12:29:18.121Z,68.61
2017-11-17T12:30:18.127Z,67.46
2017-11-17T12:31:18.130Z,64.31
2017-11-17T12:32:18.135Z,70.33
2017-11-17T12:33:18.120Z,68.23
2017-11-17T12:34:18.122Z,70.52
2017-11-17T12:35:18.121Z,67.18
2017-11-17T12:36:18.118Z,70.52
2017-11-17T12:37:18.116Z,70.10
2017-11-17T12:38:18.122Z,67.71
2017-11-17T12:39:18.114Z,68.19
2017-11-17T12:40:18.122Z,71.25
2017-11-17T12:41:18.107Z,71.92
2017-11-17T12:42:18.104Z,73.25
2017-11-17T12:43:18.100Z,70.45
2017-11-17T12:44:18.102Z,68.54
2017-11-17T12:45:18.094Z,72.36
2017-11-17T12:46:18.097Z,71.69
2017-11-17T12:47:18.094Z,72.36
2017-11-17T12:48:18.087Z,69.31
2017-11-17T12:49:18.097Z,73.22
2017-11-17T12:50:18.080Z,77.13
2017-11-17T12:51:18.077Z,72.64
2017-11-17T12:52:18.073Z,68.35